sensor_id;sensor_type;location;lat;lon;timestamp;P1;durP1;ratioP1;P2;durP2;ratioP2
69837;SDS011;57135;51.992;4.476;2023-04-09T00:01:57;34.74;;;33.65;;
69837;SDS011;57135;51.992;4.476;2023-04-09T00:04:22;34.25;;;33.31;;
69837;SDS011;57135;51.992;4.476;2023-04-09T00:06:48;34.04;;;33.12;;
69837;SDS011;57135;51.992;4.476;2023-04-09T00:09:14;33.94;;;32.92;;
69837;SDS011;57135;51.992;4.476;2023-04-09T00:11:39;34.42;;;33.61;;
69837;SDS011;57135;51.992;4.476;2023-04-09T00:14:04;35.11;;;34.02;;
69837;SDS011;57135;51.992;4.476;2023-04-09T00:16:30;36.39;;;35.09;;
69837;SDS011;57135;51.992;4.476;2023-04-09T00:18:55;36.22;;;35.04;;
69837;SDS011;57135;51.992;4.476;2023-04-09T00:21:21;36.90;;;35.43;;
69837;SDS011;57135;51.992;4.476;2023-04-09T00:23:46;34.81;;;34.14;;
69837;SDS011;57135;51.992;4.476;2023-04-09T00:26:12;35.15;;;34.30;;
69837;SDS011;57135;51.992;4.476;2023-04-09T00:28:37;35.24;;;34.32;;
69837;SDS011;57135;51.992;4.476;2023-04-09T00:31:03;36.08;;;34.86;;
69837;SDS011;57135;51.992;4.476;2023-04-09T00:33:28;35.75;;;34.53;;
69837;SDS011;57135;51.992;4.476;2023-04-09T00:35:54;36.16;;;34.98;;
69837;SDS011;57135;51.992;4.476;2023-04-09T00:38:20;35.30;;;34.40;;
69837;SDS011;57135;51.992;4.476;2023-04-09T00:40:49;36.90;;;35.68;;
69837;SDS011;57135;51.992;4.476;2023-04-09T00:43:15;36.95;;;35.63;;
69837;SDS011;57135;51.992;4.476;2023-04-09T00:45:42;37.12;;;35.82;;
69837;SDS011;57135;51.992;4.476;2023-04-09T00:48:07;36.77;;;35.46;;
69837;SDS011;57135;51.992;4.476;2023-04-09T00:50:33;37.99;;;36.64;;
69837;SDS011;57135;51.992;4.476;2023-04-09T00:52:58;37.78;;;36.59;;
69837;SDS011;57135;51.992;4.476;2023-04-09T00:55:24;38.04;;;36.60;;
69837;SDS011;57135;51.992;4.476;2023-04-09T00:57:50;37.31;;;35.95;;
69837;SDS011;57135;51.992;4.476;2023-04-09T01:00:15;38.51;;;37.15;;
69837;SDS011;57135;51.992;4.476;2023-04-09T01:02:41;37.90;;;36.73;;
69837;SDS011;57135;51.992;4.476;2023-04-09T01:05:08;38.52;;;36.90;;
69837;SDS011;57135;51.992;4.476;2023-04-09T01:10:29;36.80;;;35.56;;
69837;SDS011;57135;51.992;4.476;2023-04-09T01:13:23;37.57;;;36.00;;
69837;SDS011;57135;51.992;4.476;2023-04-09T01:16:00;37.72;;;36.25;;
69837;SDS011;57135;51.992;4.476;2023-04-09T01:21:20;35.45;;;34.43;;
69837;SDS011;57135;51.992;4.476;2023-04-09T01:29:05;34.74;;;33.52;;
69837;SDS011;57135;51.992;4.476;2023-04-09T01:31:33;35.19;;;34.20;;
69837;SDS011;57135;51.992;4.476;2023-04-09T01:34:01;37.06;;;35.82;;
69837;SDS011;57135;51.992;4.476;2023-04-09T01:36:29;36.73;;;35.33;;
69837;SDS011;57135;51.992;4.476;2023-04-09T01:38:56;37.45;;;35.87;;
69837;SDS011;57135;51.992;4.476;2023-04-09T01:41:22;39.63;;;37.87;;
69837;SDS011;57135;51.992;4.476;2023-04-09T01:43:49;38.12;;;36.63;;
69837;SDS011;57135;51.992;4.476;2023-04-09T01:46:20;39.69;;;38.02;;
69837;SDS011;57135;51.992;4.476;2023-04-09T01:48:46;39.04;;;37.12;;
69837;SDS011;57135;51.992;4.476;2023-04-09T01:51:13;38.55;;;37.03;;
69837;SDS011;57135;51.992;4.476;2023-04-09T01:53:39;40.06;;;38.18;;
69837;SDS011;57135;51.992;4.476;2023-04-09T01:56:06;40.29;;;38.28;;
69837;SDS011;57135;51.992;4.476;2023-04-09T01:58:32;41.38;;;39.25;;
69837;SDS011;57135;51.992;4.476;2023-04-09T02:01:05;41.30;;;39.16;;
69837;SDS011;57135;51.992;4.476;2023-04-09T02:03:43;39.92;;;37.79;;
69837;SDS011;57135;51.992;4.476;2023-04-09T02:09:03;39.98;;;38.01;;
69837;SDS011;57135;51.992;4.476;2023-04-09T02:11:33;41.83;;;39.32;;
69837;SDS011;57135;51.992;4.476;2023-04-09T02:14:02;40.60;;;38.28;;
69837;SDS011;57135;51.992;4.476;2023-04-09T02:16:30;39.13;;;37.13;;
69837;SDS011;57135;51.992;4.476;2023-04-09T02:18:56;38.61;;;36.96;;
69837;SDS011;57135;51.992;4.476;2023-04-09T02:21:22;40.53;;;38.39;;
69837;SDS011;57135;51.992;4.476;2023-04-09T02:23:47;39.53;;;37.98;;
69837;SDS011;57135;51.992;4.476;2023-04-09T02:26:13;39.07;;;37.15;;
69837;SDS011;57135;51.992;4.476;2023-04-09T02:28:39;38.77;;;37.15;;
69837;SDS011;57135;51.992;4.476;2023-04-09T02:31:04;38.94;;;37.31;;
69837;SDS011;57135;51.992;4.476;2023-04-09T02:33:30;40.36;;;38.45;;
69837;SDS011;57135;51.992;4.476;2023-04-09T02:35:55;40.21;;;38.15;;
69837;SDS011;57135;51.992;4.476;2023-04-09T02:38:21;39.79;;;37.99;;
69837;SDS011;57135;51.992;4.476;2023-04-09T02:40:46;41.58;;;39.02;;
69837;SDS011;57135;51.992;4.476;2023-04-09T02:43:12;40.89;;;38.44;;
69837;SDS011;57135;51.992;4.476;2023-04-09T02:45:37;39.38;;;37.46;;
69837;SDS011;57135;51.992;4.476;2023-04-09T02:48:03;39.55;;;37.36;;
69837;SDS011;57135;51.992;4.476;2023-04-09T02:50:29;38.98;;;36.93;;
69837;SDS011;57135;51.992;4.476;2023-04-09T02:52:54;39.12;;;37.27;;
69837;SDS011;57135;51.992;4.476;2023-04-09T02:55:20;39.96;;;38.17;;
69837;SDS011;57135;51.992;4.476;2023-04-09T02:57:45;40.51;;;38.21;;
69837;SDS011;57135;51.992;4.476;2023-04-09T03:00:11;40.48;;;38.74;;
69837;SDS011;57135;51.992;4.476;2023-04-09T03:02:37;42.15;;;40.16;;
69837;SDS011;57135;51.992;4.476;2023-04-09T03:05:02;40.95;;;39.11;;
69837;SDS011;57135;51.992;4.476;2023-04-09T03:07:28;40.92;;;38.87;;
69837;SDS011;57135;51.992;4.476;2023-04-09T03:09:54;41.57;;;39.31;;
69837;SDS011;57135;51.992;4.476;2023-04-09T03:12:19;42.18;;;40.05;;
69837;SDS011;57135;51.992;4.476;2023-04-09T03:14:45;40.95;;;39.34;;
69837;SDS011;57135;51.992;4.476;2023-04-09T03:17:10;40.60;;;38.58;;
69837;SDS011;57135;51.992;4.476;2023-04-09T03:19:36;42.15;;;39.94;;
69837;SDS011;57135;51.992;4.476;2023-04-09T03:22:01;41.56;;;39.11;;
69837;SDS011;57135;51.992;4.476;2023-04-09T03:24:27;41.27;;;39.09;;
69837;SDS011;57135;51.992;4.476;2023-04-09T03:26:52;42.42;;;40.02;;
69837;SDS011;57135;51.992;4.476;2023-04-09T03:29:17;43.45;;;40.90;;
69837;SDS011;57135;51.992;4.476;2023-04-09T03:31:43;43.46;;;40.66;;
69837;SDS011;57135;51.992;4.476;2023-04-09T03:34:08;43.76;;;41.05;;
69837;SDS011;57135;51.992;4.476;2023-04-09T03:36:34;42.40;;;39.85;;
69837;SDS011;57135;51.992;4.476;2023-04-09T03:38:59;42.82;;;40.48;;
69837;SDS011;57135;51.992;4.476;2023-04-09T03:41:25;41.55;;;39.33;;
69837;SDS011;57135;51.992;4.476;2023-04-09T03:43:51;42.53;;;40.22;;
69837;SDS011;57135;51.992;4.476;2023-04-09T03:46:17;43.05;;;40.54;;
69837;SDS011;57135;51.992;4.476;2023-04-09T03:48:43;41.16;;;39.06;;
69837;SDS011;57135;51.992;4.476;2023-04-09T03:51:11;44.06;;;40.89;;
69837;SDS011;57135;51.992;4.476;2023-04-09T03:53:38;44.20;;;41.11;;
69837;SDS011;57135;51.992;4.476;2023-04-09T03:56:04;42.76;;;40.19;;
69837;SDS011;57135;51.992;4.476;2023-04-09T03:58:29;41.76;;;39.39;;
69837;SDS011;57135;51.992;4.476;2023-04-09T04:00:55;42.43;;;40.15;;
69837;SDS011;57135;51.992;4.476;2023-04-09T04:03:20;42.55;;;40.32;;
69837;SDS011;57135;51.992;4.476;2023-04-09T04:05:46;43.64;;;41.08;;
69837;SDS011;57135;51.992;4.476;2023-04-09T04:08:11;43.62;;;41.06;;
69837;SDS011;57135;51.992;4.476;2023-04-09T04:10:36;43.65;;;40.89;;
69837;SDS011;57135;51.992;4.476;2023-04-09T04:13:02;44.44;;;42.05;;
69837;SDS011;57135;51.992;4.476;2023-04-09T04:15:27;44.72;;;42.03;;
69837;SDS011;57135;51.992;4.476;2023-04-09T04:17:53;43.56;;;41.34;;
69837;SDS011;57135;51.992;4.476;2023-04-09T04:20:19;42.19;;;40.20;;
69837;SDS011;57135;51.992;4.476;2023-04-09T04:22:45;43.72;;;41.07;;
69837;SDS011;57135;51.992;4.476;2023-04-09T04:25:10;44.42;;;41.60;;
69837;SDS011;57135;51.992;4.476;2023-04-09T04:27:36;43.77;;;41.29;;
69837;SDS011;57135;51.992;4.476;2023-04-09T04:30:01;41.24;;;39.47;;
69837;SDS011;57135;51.992;4.476;2023-04-09T04:32:27;42.81;;;40.61;;
69837;SDS011;57135;51.992;4.476;2023-04-09T04:34:52;43.80;;;41.64;;
69837;SDS011;57135;51.992;4.476;2023-04-09T04:37:18;43.18;;;41.06;;
69837;SDS011;57135;51.992;4.476;2023-04-09T04:39:44;44.85;;;42.05;;
69837;SDS011;57135;51.992;4.476;2023-04-09T04:42:09;44.02;;;41.34;;
69837;SDS011;57135;51.992;4.476;2023-04-09T04:44:35;43.57;;;41.13;;
69837;SDS011;57135;51.992;4.476;2023-04-09T04:47:00;43.54;;;41.36;;
69837;SDS011;57135;51.992;4.476;2023-04-09T04:49:26;42.85;;;40.66;;
69837;SDS011;57135;51.992;4.476;2023-04-09T04:51:51;44.38;;;42.14;;
69837;SDS011;57135;51.992;4.476;2023-04-09T04:54:17;44.18;;;42.24;;
69837;SDS011;57135;51.992;4.476;2023-04-09T04:56:42;44.77;;;42.50;;
69837;SDS011;57135;51.992;4.476;2023-04-09T04:59:08;45.70;;;42.84;;
69837;SDS011;57135;51.992;4.476;2023-04-09T05:01:33;44.84;;;42.33;;
69837;SDS011;57135;51.992;4.476;2023-04-09T05:03:58;45.93;;;42.80;;
69837;SDS011;57135;51.992;4.476;2023-04-09T05:06:24;46.43;;;43.25;;
69837;SDS011;57135;51.992;4.476;2023-04-09T05:08:51;44.31;;;41.99;;
69837;SDS011;57135;51.992;4.476;2023-04-09T05:11:18;46.07;;;42.87;;
69837;SDS011;57135;51.992;4.476;2023-04-09T05:13:43;45.01;;;42.44;;
69837;SDS011;57135;51.992;4.476;2023-04-09T05:16:14;43.88;;;41.27;;
69837;SDS011;57135;51.992;4.476;2023-04-09T05:18:41;45.18;;;42.47;;
69837;SDS011;57135;51.992;4.476;2023-04-09T05:21:07;45.20;;;42.48;;
69837;SDS011;57135;51.992;4.476;2023-04-09T05:23:32;43.68;;;41.37;;
69837;SDS011;57135;51.992;4.476;2023-04-09T05:25:58;45.59;;;42.76;;
69837;SDS011;57135;51.992;4.476;2023-04-09T05:28:23;44.86;;;42.25;;
69837;SDS011;57135;51.992;4.476;2023-04-09T05:30:48;45.11;;;42.56;;
69837;SDS011;57135;51.992;4.476;2023-04-09T05:33:14;43.85;;;41.48;;
69837;SDS011;57135;51.992;4.476;2023-04-09T05:35:40;43.63;;;41.07;;
69837;SDS011;57135;51.992;4.476;2023-04-09T05:38:05;43.03;;;40.71;;
69837;SDS011;57135;51.992;4.476;2023-04-09T05:40:30;43.21;;;41.18;;
69837;SDS011;57135;51.992;4.476;2023-04-09T05:42:56;42.83;;;40.49;;
69837;SDS011;57135;51.992;4.476;2023-04-09T05:45:22;44.22;;;41.60;;
69837;SDS011;57135;51.992;4.476;2023-04-09T05:47:47;45.21;;;42.26;;
69837;SDS011;57135;51.992;4.476;2023-04-09T05:50:12;44.43;;;42.07;;
69837;SDS011;57135;51.992;4.476;2023-04-09T05:52:38;44.70;;;41.86;;
69837;SDS011;57135;51.992;4.476;2023-04-09T05:55:03;44.84;;;41.81;;
69837;SDS011;57135;51.992;4.476;2023-04-09T05:57:30;45.47;;;42.22;;
69837;SDS011;57135;51.992;4.476;2023-04-09T05:59:56;44.48;;;41.70;;
69837;SDS011;57135;51.992;4.476;2023-04-09T06:02:22;43.32;;;40.92;;
69837;SDS011;57135;51.992;4.476;2023-04-09T06:04:49;43.80;;;41.02;;
69837;SDS011;57135;51.992;4.476;2023-04-09T06:07:14;43.50;;;40.78;;
69837;SDS011;57135;51.992;4.476;2023-04-09T06:09:40;44.26;;;41.29;;
69837;SDS011;57135;51.992;4.476;2023-04-09T06:12:08;44.64;;;41.58;;
69837;SDS011;57135;51.992;4.476;2023-04-09T06:14:34;43.37;;;40.74;;
69837;SDS011;57135;51.992;4.476;2023-04-09T06:16:59;44.09;;;41.32;;
69837;SDS011;57135;51.992;4.476;2023-04-09T06:19:25;45.85;;;42.14;;
69837;SDS011;57135;51.992;4.476;2023-04-09T06:21:50;44.05;;;41.02;;
69837;SDS011;57135;51.992;4.476;2023-04-09T06:24:16;44.61;;;41.76;;
69837;SDS011;57135;51.992;4.476;2023-04-09T06:26:41;42.33;;;39.87;;
69837;SDS011;57135;51.992;4.476;2023-04-09T06:29:07;44.41;;;41.23;;
69837;SDS011;57135;51.992;4.476;2023-04-09T06:31:32;43.87;;;41.13;;
69837;SDS011;57135;51.992;4.476;2023-04-09T06:33:58;44.49;;;41.70;;
69837;SDS011;57135;51.992;4.476;2023-04-09T06:36:24;44.69;;;41.62;;
69837;SDS011;57135;51.992;4.476;2023-04-09T06:38:50;45.39;;;42.12;;
69837;SDS011;57135;51.992;4.476;2023-04-09T06:41:18;45.46;;;42.25;;
69837;SDS011;57135;51.992;4.476;2023-04-09T06:43:45;46.57;;;42.86;;
69837;SDS011;57135;51.992;4.476;2023-04-09T06:46:10;44.56;;;41.41;;
69837;SDS011;57135;51.992;4.476;2023-04-09T06:48:37;46.78;;;43.37;;
69837;SDS011;57135;51.992;4.476;2023-04-09T06:51:03;46.46;;;43.12;;
69837;SDS011;57135;51.992;4.476;2023-04-09T06:53:28;47.64;;;43.59;;
69837;SDS011;57135;51.992;4.476;2023-04-09T06:55:54;47.00;;;43.05;;
69837;SDS011;57135;51.992;4.476;2023-04-09T06:58:20;47.04;;;43.28;;
69837;SDS011;57135;51.992;4.476;2023-04-09T07:00:46;46.22;;;43.29;;
69837;SDS011;57135;51.992;4.476;2023-04-09T07:03:11;47.76;;;43.64;;
69837;SDS011;57135;51.992;4.476;2023-04-09T07:05:37;46.90;;;43.42;;
69837;SDS011;57135;51.992;4.476;2023-04-09T07:08:02;49.07;;;44.58;;
69837;SDS011;57135;51.992;4.476;2023-04-09T07:10:28;49.87;;;44.90;;
69837;SDS011;57135;51.992;4.476;2023-04-09T07:12:53;49.82;;;45.24;;
69837;SDS011;57135;51.992;4.476;2023-04-09T07:15:19;48.79;;;44.99;;
69837;SDS011;57135;51.992;4.476;2023-04-09T07:17:44;49.87;;;45.83;;
69837;SDS011;57135;51.992;4.476;2023-04-09T07:20:10;50.94;;;46.81;;
69837;SDS011;57135;51.992;4.476;2023-04-09T07:22:36;56.71;;;50.27;;
69837;SDS011;57135;51.992;4.476;2023-04-09T07:25:01;58.38;;;51.60;;
69837;SDS011;57135;51.992;4.476;2023-04-09T07:27:27;61.86;;;54.39;;
69837;SDS011;57135;51.992;4.476;2023-04-09T07:29:56;63.66;;;54.99;;
69837;SDS011;57135;51.992;4.476;2023-04-09T07:32:23;63.18;;;54.89;;
69837;SDS011;57135;51.992;4.476;2023-04-09T07:34:50;66.96;;;56.39;;
69837;SDS011;57135;51.992;4.476;2023-04-09T07:37:16;68.90;;;57.89;;
69837;SDS011;57135;51.992;4.476;2023-04-09T07:39:43;67.43;;;57.20;;
69837;SDS011;57135;51.992;4.476;2023-04-09T07:42:08;71.34;;;60.40;;
69837;SDS011;57135;51.992;4.476;2023-04-09T07:44:34;71.14;;;60.35;;
69837;SDS011;57135;51.992;4.476;2023-04-09T07:47:04;74.75;;;62.45;;
69837;SDS011;57135;51.992;4.476;2023-04-09T07:49:31;76.06;;;62.84;;
69837;SDS011;57135;51.992;4.476;2023-04-09T07:51:57;73.18;;;61.22;;
69837;SDS011;57135;51.992;4.476;2023-04-09T07:54:23;74.19;;;61.45;;
69837;SDS011;57135;51.992;4.476;2023-04-09T07:56:49;75.63;;;62.74;;
69837;SDS011;57135;51.992;4.476;2023-04-09T07:59:14;75.55;;;63.00;;
69837;SDS011;57135;51.992;4.476;2023-04-09T08:01:40;77.10;;;63.58;;
69837;SDS011;57135;51.992;4.476;2023-04-09T08:04:06;74.72;;;62.65;;
69837;SDS011;57135;51.992;4.476;2023-04-09T08:06:31;73.87;;;62.24;;
69837;SDS011;57135;51.992;4.476;2023-04-09T08:08:57;77.44;;;64.04;;
69837;SDS011;57135;51.992;4.476;2023-04-09T08:11:22;77.81;;;64.29;;
69837;SDS011;57135;51.992;4.476;2023-04-09T08:13:53;76.17;;;63.47;;
69837;SDS011;57135;51.992;4.476;2023-04-09T08:16:19;78.99;;;64.75;;
69837;SDS011;57135;51.992;4.476;2023-04-09T08:18:54;78.24;;;64.55;;
69837;SDS011;57135;51.992;4.476;2023-04-09T08:21:20;75.96;;;63.34;;
69837;SDS011;57135;51.992;4.476;2023-04-09T08:23:46;79.11;;;65.51;;
69837;SDS011;57135;51.992;4.476;2023-04-09T08:26:11;78.76;;;65.39;;
69837;SDS011;57135;51.992;4.476;2023-04-09T08:28:37;76.36;;;63.93;;
69837;SDS011;57135;51.992;4.476;2023-04-09T08:31:03;77.13;;;64.40;;
69837;SDS011;57135;51.992;4.476;2023-04-09T08:33:30;78.61;;;64.67;;
69837;SDS011;57135;51.992;4.476;2023-04-09T08:35:55;74.68;;;62.08;;
69837;SDS011;57135;51.992;4.476;2023-04-09T08:38:21;75.15;;;62.24;;
69837;SDS011;57135;51.992;4.476;2023-04-09T08:40:46;75.68;;;62.20;;
69837;SDS011;57135;51.992;4.476;2023-04-09T08:43:15;78.34;;;64.09;;
69837;SDS011;57135;51.992;4.476;2023-04-09T08:45:40;76.43;;;62.95;;
69837;SDS011;57135;51.992;4.476;2023-04-09T08:48:07;75.46;;;62.60;;
69837;SDS011;57135;51.992;4.476;2023-04-09T08:50:34;74.01;;;62.26;;
69837;SDS011;57135;51.992;4.476;2023-04-09T08:53:04;74.55;;;62.33;;
69837;SDS011;57135;51.992;4.476;2023-04-09T08:55:30;71.43;;;60.26;;
69837;SDS011;57135;51.992;4.476;2023-04-09T08:57:58;71.33;;;60.62;;
69837;SDS011;57135;51.992;4.476;2023-04-09T09:00:24;76.13;;;63.94;;
69837;SDS011;57135;51.992;4.476;2023-04-09T09:02:59;73.87;;;62.53;;
69837;SDS011;57135;51.992;4.476;2023-04-09T09:05:39;73.81;;;62.70;;
69837;SDS011;57135;51.992;4.476;2023-04-09T09:08:24;75.00;;;63.63;;
69837;SDS011;57135;51.992;4.476;2023-04-09T09:10:59;75.02;;;63.26;;
69837;SDS011;57135;51.992;4.476;2023-04-09T09:13:25;73.08;;;62.23;;
69837;SDS011;57135;51.992;4.476;2023-04-09T09:15:53;75.93;;;64.27;;
69837;SDS011;57135;51.992;4.476;2023-04-09T09:18:42;75.63;;;63.84;;
69837;SDS011;57135;51.992;4.476;2023-04-09T09:21:11;77.64;;;65.09;;
69837;SDS011;57135;51.992;4.476;2023-04-09T09:23:36;75.31;;;63.97;;
69837;SDS011;57135;51.992;4.476;2023-04-09T09:26:19;74.01;;;63.10;;
69837;SDS011;57135;51.992;4.476;2023-04-09T09:28:47;71.36;;;60.86;;
69837;SDS011;57135;51.992;4.476;2023-04-09T09:31:14;71.16;;;60.42;;
69837;SDS011;57135;51.992;4.476;2023-04-09T09:33:40;72.72;;;61.50;;
69837;SDS011;57135;51.992;4.476;2023-04-09T09:36:06;74.60;;;62.38;;
69837;SDS011;57135;51.992;4.476;2023-04-09T09:38:51;79.54;;;65.68;;
69837;SDS011;57135;51.992;4.476;2023-04-09T09:41:21;80.98;;;67.91;;
69837;SDS011;57135;51.992;4.476;2023-04-09T09:43:48;79.24;;;67.74;;
69837;SDS011;57135;51.992;4.476;2023-04-09T09:46:14;80.96;;;69.22;;
69837;SDS011;57135;51.992;4.476;2023-04-09T09:48:40;84.47;;;71.27;;
69837;SDS011;57135;51.992;4.476;2023-04-09T09:51:08;85.70;;;71.39;;
69837;SDS011;57135;51.992;4.476;2023-04-09T09:53:35;86.79;;;72.23;;
69837;SDS011;57135;51.992;4.476;2023-04-09T09:56:03;85.23;;;71.76;;
69837;SDS011;57135;51.992;4.476;2023-04-09T09:58:35;84.99;;;71.20;;
69837;SDS011;57135;51.992;4.476;2023-04-09T10:01:06;87.62;;;72.90;;
69837;SDS011;57135;51.992;4.476;2023-04-09T10:03:34;84.34;;;71.53;;
69837;SDS011;57135;51.992;4.476;2023-04-09T10:06:02;83.27;;;70.37;;
69837;SDS011;57135;51.992;4.476;2023-04-09T10:08:29;82.46;;;70.45;;
69837;SDS011;57135;51.992;4.476;2023-04-09T10:10:57;84.52;;;70.81;;
69837;SDS011;57135;51.992;4.476;2023-04-09T10:13:45;86.23;;;71.69;;
69837;SDS011;57135;51.992;4.476;2023-04-09T10:16:10;85.79;;;71.09;;
69837;SDS011;57135;51.992;4.476;2023-04-09T10:18:37;84.45;;;70.10;;
69837;SDS011;57135;51.992;4.476;2023-04-09T10:21:08;82.76;;;69.20;;
69837;SDS011;57135;51.992;4.476;2023-04-09T10:23:56;83.43;;;70.00;;
69837;SDS011;57135;51.992;4.476;2023-04-09T10:26:23;83.18;;;69.49;;
69837;SDS011;57135;51.992;4.476;2023-04-09T10:29:06;83.31;;;69.52;;
69837;SDS011;57135;51.992;4.476;2023-04-09T10:31:46;83.39;;;70.09;;
69837;SDS011;57135;51.992;4.476;2023-04-09T10:34:16;82.92;;;69.32;;
69837;SDS011;57135;51.992;4.476;2023-04-09T10:36:50;82.10;;;69.82;;
69837;SDS011;57135;51.992;4.476;2023-04-09T10:39:27;80.04;;;68.20;;
69837;SDS011;57135;51.992;4.476;2023-04-09T10:41:57;81.30;;;68.12;;
69837;SDS011;57135;51.992;4.476;2023-04-09T10:44:28;77.76;;;66.30;;
69837;SDS011;57135;51.992;4.476;2023-04-09T10:46:59;79.34;;;67.50;;
69837;SDS011;57135;51.992;4.476;2023-04-09T10:49:25;77.54;;;66.38;;
69837;SDS011;57135;51.992;4.476;2023-04-09T10:52:13;78.42;;;67.42;;
69837;SDS011;57135;51.992;4.476;2023-04-09T10:54:45;81.88;;;69.48;;
69837;SDS011;57135;51.992;4.476;2023-04-09T10:57:23;74.68;;;64.81;;
69837;SDS011;57135;51.992;4.476;2023-04-09T10:59:58;75.69;;;65.07;;
69837;SDS011;57135;51.992;4.476;2023-04-09T11:07:57;72.13;;;63.57;;
69837;SDS011;57135;51.992;4.476;2023-04-09T11:10:46;74.44;;;65.41;;
69837;SDS011;57135;51.992;4.476;2023-04-09T11:13:23;73.25;;;64.86;;
69837;SDS011;57135;51.992;4.476;2023-04-09T11:15:49;72.55;;;64.29;;
69837;SDS011;57135;51.992;4.476;2023-04-09T11:18:18;68.00;;;61.40;;
69837;SDS011;57135;51.992;4.476;2023-04-09T11:20:46;67.08;;;60.60;;
69837;SDS011;57135;51.992;4.476;2023-04-09T11:23:12;66.59;;;60.54;;
69837;SDS011;57135;51.992;4.476;2023-04-09T11:25:39;66.23;;;60.65;;
69837;SDS011;57135;51.992;4.476;2023-04-09T11:28:05;66.52;;;60.19;;
69837;SDS011;57135;51.992;4.476;2023-04-09T11:30:32;62.45;;;57.94;;
69837;SDS011;57135;51.992;4.476;2023-04-09T11:32:58;61.94;;;57.07;;
69837;SDS011;57135;51.992;4.476;2023-04-09T11:35:24;61.84;;;57.00;;
69837;SDS011;57135;51.992;4.476;2023-04-09T11:37:50;61.70;;;57.15;;
69837;SDS011;57135;51.992;4.476;2023-04-09T11:40:17;62.45;;;57.32;;
69837;SDS011;57135;51.992;4.476;2023-04-09T11:42:44;59.68;;;55.94;;
69837;SDS011;57135;51.992;4.476;2023-04-09T11:45:11;58.87;;;55.19;;
69837;SDS011;57135;51.992;4.476;2023-04-09T11:47:38;58.89;;;55.48;;
69837;SDS011;57135;51.992;4.476;2023-04-09T11:50:08;57.75;;;54.96;;
69837;SDS011;57135;51.992;4.476;2023-04-09T11:52:35;59.32;;;55.76;;
69837;SDS011;57135;51.992;4.476;2023-04-09T11:55:04;60.34;;;56.68;;
69837;SDS011;57135;51.992;4.476;2023-04-09T11:57:43;58.98;;;55.76;;
69837;SDS011;57135;51.992;4.476;2023-04-09T12:02:40;58.17;;;55.11;;
69837;SDS011;57135;51.992;4.476;2023-04-09T12:05:26;58.65;;;55.78;;
69837;SDS011;57135;51.992;4.476;2023-04-09T12:07:57;60.09;;;56.63;;
69837;SDS011;57135;51.992;4.476;2023-04-09T12:10:25;58.87;;;56.00;;
69837;SDS011;57135;51.992;4.476;2023-04-09T12:12:52;59.68;;;56.67;;
69837;SDS011;57135;51.992;4.476;2023-04-09T12:15:18;57.73;;;55.23;;
69837;SDS011;57135;51.992;4.476;2023-04-09T12:17:50;56.55;;;54.38;;
69837;SDS011;57135;51.992;4.476;2023-04-09T12:23:00;54.93;;;53.04;;
69837;SDS011;57135;51.992;4.476;2023-04-09T12:25:31;55.18;;;53.34;;
69837;SDS011;57135;51.992;4.476;2023-04-09T12:27:57;53.54;;;52.02;;
69837;SDS011;57135;51.992;4.476;2023-04-09T12:30:23;54.58;;;53.07;;
69837;SDS011;57135;51.992;4.476;2023-04-09T12:32:50;56.61;;;54.79;;
69837;SDS011;57135;51.992;4.476;2023-04-09T12:35:17;55.46;;;53.52;;
69837;SDS011;57135;51.992;4.476;2023-04-09T12:37:43;56.12;;;53.89;;
69837;SDS011;57135;51.992;4.476;2023-04-09T12:40:08;52.12;;;50.46;;
69837;SDS011;57135;51.992;4.476;2023-04-09T12:42:35;49.46;;;47.94;;
69837;SDS011;57135;51.992;4.476;2023-04-09T12:45:00;50.26;;;48.59;;
69837;SDS011;57135;51.992;4.476;2023-04-09T12:47:25;50.61;;;49.21;;
69837;SDS011;57135;51.992;4.476;2023-04-09T12:49:52;50.08;;;48.27;;
69837;SDS011;57135;51.992;4.476;2023-04-09T12:52:18;48.19;;;46.80;;
69837;SDS011;57135;51.992;4.476;2023-04-09T12:54:43;47.07;;;45.46;;
69837;SDS011;57135;51.992;4.476;2023-04-09T12:57:09;44.76;;;43.66;;
69837;SDS011;57135;51.992;4.476;2023-04-09T12:59:35;47.52;;;45.99;;
69837;SDS011;57135;51.992;4.476;2023-04-09T13:02:00;48.74;;;46.92;;
69837;SDS011;57135;51.992;4.476;2023-04-09T13:04:26;46.68;;;45.32;;
69837;SDS011;57135;51.992;4.476;2023-04-09T13:06:51;45.46;;;44.32;;
69837;SDS011;57135;51.992;4.476;2023-04-09T13:09:17;45.19;;;43.90;;
69837;SDS011;57135;51.992;4.476;2023-04-09T13:11:42;43.60;;;42.58;;
69837;SDS011;57135;51.992;4.476;2023-04-09T13:14:08;44.05;;;43.34;;
69837;SDS011;57135;51.992;4.476;2023-04-09T13:16:38;43.94;;;42.37;;
69837;SDS011;57135;51.992;4.476;2023-04-09T13:19:05;43.12;;;42.16;;
69837;SDS011;57135;51.992;4.476;2023-04-09T13:21:31;42.89;;;41.88;;
69837;SDS011;57135;51.992;4.476;2023-04-09T13:23:57;44.03;;;42.77;;
69837;SDS011;57135;51.992;4.476;2023-04-09T13:26:22;41.84;;;41.10;;
69837;SDS011;57135;51.992;4.476;2023-04-09T13:28:48;42.13;;;41.08;;
69837;SDS011;57135;51.992;4.476;2023-04-09T13:31:15;40.99;;;40.17;;
69837;SDS011;57135;51.992;4.476;2023-04-09T13:33:41;43.09;;;41.87;;
69837;SDS011;57135;51.992;4.476;2023-04-09T13:36:07;43.41;;;42.13;;
69837;SDS011;57135;51.992;4.476;2023-04-09T13:38:35;39.54;;;38.57;;
69837;SDS011;57135;51.992;4.476;2023-04-09T13:41:00;38.34;;;37.24;;
69837;SDS011;57135;51.992;4.476;2023-04-09T13:43:25;38.58;;;37.64;;
69837;SDS011;57135;51.992;4.476;2023-04-09T13:45:53;38.64;;;37.66;;
69837;SDS011;57135;51.992;4.476;2023-04-09T13:48:19;40.28;;;39.01;;
69837;SDS011;57135;51.992;4.476;2023-04-09T13:50:45;39.85;;;38.95;;
69837;SDS011;57135;51.992;4.476;2023-04-09T13:53:11;40.41;;;39.22;;
69837;SDS011;57135;51.992;4.476;2023-04-09T13:55:37;39.65;;;38.75;;
69837;SDS011;57135;51.992;4.476;2023-04-09T13:58:03;39.81;;;39.08;;
69837;SDS011;57135;51.992;4.476;2023-04-09T14:00:29;39.31;;;38.41;;
69837;SDS011;57135;51.992;4.476;2023-04-09T14:02:55;39.57;;;38.37;;
69837;SDS011;57135;51.992;4.476;2023-04-09T14:05:21;38.29;;;37.42;;
69837;SDS011;57135;51.992;4.476;2023-04-09T14:07:46;36.75;;;36.06;;
69837;SDS011;57135;51.992;4.476;2023-04-09T14:10:12;37.33;;;36.47;;
69837;SDS011;57135;51.992;4.476;2023-04-09T14:12:38;36.64;;;35.57;;
69837;SDS011;57135;51.992;4.476;2023-04-09T14:15:03;35.55;;;34.88;;
69837;SDS011;57135;51.992;4.476;2023-04-09T14:17:29;35.24;;;34.38;;
69837;SDS011;57135;51.992;4.476;2023-04-09T14:19:55;34.98;;;34.35;;
69837;SDS011;57135;51.992;4.476;2023-04-09T14:22:23;33.60;;;32.80;;
69837;SDS011;57135;51.992;4.476;2023-04-09T14:24:49;32.45;;;31.84;;
69837;SDS011;57135;51.992;4.476;2023-04-09T14:27:15;33.10;;;32.59;;
69837;SDS011;57135;51.992;4.476;2023-04-09T14:29:41;32.40;;;31.67;;
69837;SDS011;57135;51.992;4.476;2023-04-09T14:32:06;32.10;;;31.58;;
69837;SDS011;57135;51.992;4.476;2023-04-09T14:34:32;31.89;;;31.13;;
69837;SDS011;57135;51.992;4.476;2023-04-09T14:36:57;31.39;;;31.03;;
69837;SDS011;57135;51.992;4.476;2023-04-09T14:39:23;31.51;;;30.83;;
69837;SDS011;57135;51.992;4.476;2023-04-09T14:41:48;32.30;;;31.49;;
69837;SDS011;57135;51.992;4.476;2023-04-09T14:44:14;31.02;;;30.28;;
69837;SDS011;57135;51.992;4.476;2023-04-09T14:46:39;31.06;;;30.29;;